createdAt,value
2023-05-18T00:00:08.668Z,100960.07
2023-05-18T00:02:24.725Z,100957.97
2023-05-18T00:04:39.046Z,100952.97
2023-05-18T00:06:50.832Z,100950.06
2023-05-18T00:09:06.329Z,100954.92
2023-05-18T00:11:21.869Z,100953.78
2023-05-18T00:13:32.511Z,100957.87
2023-05-18T00:15:43.828Z,100961.05
2023-05-18T00:18:04.120Z,100960.38
2023-05-18T00:20:15.916Z,100963.55
2023-05-18T00:22:27.979Z,100967.06
2023-05-18T00:24:40.172Z,100967.11
2023-05-18T00:26:51.685Z,100969.38
2023-05-18T00:29:02.816Z,100972.02
2023-05-18T00:31:15.415Z,100977.13
2023-05-18T00:33:27.253Z,100977.5
2023-05-18T00:35:41.616Z,100975.48
2023-05-18T00:37:52.411Z,100974.38
2023-05-18T00:40:04.417Z,100973.43
2023-05-18T00:42:16.815Z,100976.97
2023-05-18T00:44:28.634Z,100975.08
2023-05-18T00:46:39.540Z,100974.58
2023-05-18T00:48:50.096Z,100977.92
2023-05-18T00:51:01.860Z,100980.52
2023-05-18T00:53:12.457Z,100984.3
2023-05-18T00:55:23.498Z,100986.52
2023-05-18T00:57:37.115Z,100986.27
2023-05-18T00:59:47.916Z,100985.94
2023-05-18T01:01:58.180Z,100986.23
2023-05-18T01:04:10.339Z,100985.53
2023-05-18T01:06:22.233Z,100989.78
2023-05-18T01:08:33.573Z,100992.66
2023-05-18T01:10:44.374Z,100991.95
2023-05-18T01:12:55.933Z,100993.31
2023-05-18T01:15:07.813Z,100993.8
2023-05-18T01:17:21.559Z,100992.6
2023-05-18T01:19:33.093Z,100998.23
2023-05-18T01:21:45.416Z,100999.38
2023-05-18T01:23:57.074Z,101004.72
2023-05-18T01:26:09.016Z,101006.57
2023-05-18T01:28:20.593Z,101007.38
2023-05-18T01:30:38.319Z,101010.22
2023-05-18T01:32:49.506Z,101008.48
2023-05-18T01:35:02.165Z,101007.38
2023-05-18T01:37:13.096Z,101009.89
2023-05-18T01:39:24.914Z,101010.88
2023-05-18T01:41:35.636Z,101023.79
2023-05-18T01:43:49.514Z,101021.27
2023-05-18T01:46:00.260Z,101018.7
2023-05-18T01:48:11.471Z,101020.47
2023-05-18T01:50:22.435Z,101021.34
2023-05-18T01:52:35.232Z,101020.77
2023-05-18T01:54:46.476Z,101019.91
2023-05-18T01:56:57.456Z,101022.02
2023-05-18T01:59:08.193Z,101020.29
2023-05-18T02:01:20.487Z,101027.24
2023-05-18T02:03:32.001Z,101022.44
2023-05-18T02:05:43.634Z,101024.92
2023-05-18T02:07:54.212Z,101028.45
2023-05-18T02:10:05.517Z,101027.95
2023-05-18T02:12:16.109Z,101027.65
2023-05-18T02:14:26.491Z,101028.66
2023-05-18T02:16:39.962Z,101029.86
2023-05-18T02:18:51.725Z,101033.41
2023-05-18T02:21:03.714Z,101027.11
2023-05-18T02:23:17.276Z,101030.56
2023-05-18T02:25:28.720Z,101033.49
2023-05-18T02:27:41.494Z,101032.72
2023-05-18T02:29:52.731Z,101035.94
2023-05-18T02:32:04.264Z,101035.61
2023-05-18T02:34:17.517Z,101037.66
2023-05-18T02:36:29.751Z,101041.85
2023-05-18T02:38:42.401Z,101045.48
2023-05-18T02:40:55.525Z,101050.59
2023-05-18T02:43:09.292Z,101047.09
2023-05-18T02:45:21.481Z,101044.61
2023-05-18T02:47:34.220Z,101047.65
2023-05-18T02:49:45.810Z,101057.73
2023-05-18T02:51:59.230Z,101055.19
2023-05-18T02:54:15.417Z,101062.05
2023-05-18T02:56:29.628Z,101063.64
2023-05-18T02:58:49.689Z,101063.89
2023-05-18T03:01:02.354Z,101056.37
2023-05-18T03:03:15.205Z,101055.13
2023-05-18T03:05:29.556Z,101056.18
2023-05-18T03:07:43.260Z,101063.28
2023-05-18T03:09:55.093Z,101061.16
2023-05-18T03:12:07.792Z,101064.92
2023-05-18T03:14:19.214Z,101067.31
2023-05-18T03:16:32.252Z,101068.95
2023-05-18T03:18:59.941Z,101072.33
2023-05-18T03:21:12.289Z,101075.47
2023-05-18T03:23:23.152Z,101071.89
2023-05-18T03:25:33.876Z,101071.94
2023-05-18T03:27:47.414Z,101073.59
2023-05-18T03:29:59.761Z,101076.82
2023-05-18T03:32:20.177Z,101074.17
2023-05-18T03:34:33.053Z,101078.93
2023-05-18T03:36:46.894Z,101077.86
2023-05-18T03:39:10.733Z,101076.14
2023-05-18T03:41:22.938Z,101077.55
2023-05-18T03:43:35.515Z,101080.81
2023-05-18T03:45:47.356Z,101082.31
2023-05-18T03:47:58.097Z,101082.19
2023-05-18T03:50:10.445Z,101083.05
2023-05-18T03:52:30.203Z,101087.73
2023-05-18T03:54:55.808Z,101091.66
2023-05-18T03:57:10.495Z,101092.48
2023-05-18T03:59:21.799Z,101097.73
2023-05-18T04:01:33.120Z,101094.06
2023-05-18T04:03:44.628Z,101096.16
2023-05-18T04:05:59.781Z,101098.2
2023-05-18T04:08:19.396Z,101101.13
2023-05-18T04:10:32.095Z,101103.36
2023-05-18T04:12:45.173Z,101103.48
2023-05-18T04:14:57.595Z,101108.55
2023-05-18T04:17:08.718Z,101109.91
2023-05-18T04:19:20.195Z,101108.47
2023-05-18T04:21:33.519Z,101102.13
2023-05-18T04:23:54.386Z,101104.77
2023-05-18T04:26:04.257Z,101106.91
2023-05-18T04:28:20.137Z,101110.94
2023-05-18T04:30:31.642Z,101112.88
2023-05-18T04:32:43.424Z,101115.56
2023-05-18T04:34:54.657Z,101114.91
2023-05-18T04:37:07.900Z,101118.2
2023-05-18T04:39:18.382Z,101116.3
2023-05-18T04:41:30.472Z,101119.77
2023-05-18T04:43:40.911Z,101120.72
2023-05-18T04:45:53.114Z,101119.2
2023-05-18T04:48:10.750Z,101117.49
2023-05-18T04:50:24.065Z,101117.6
2023-05-18T04:52:40.335Z,101120.86
2023-05-18T04:54:56.276Z,101120.49
2023-05-18T04:57:06.819Z,101125.38
2023-05-18T04:59:18.238Z,101132.3
2023-05-18T05:01:28.466Z,101134.27
2023-05-18T05:03:44.067Z,101133.45
2023-05-18T05:05:56.535Z,101133.48
2023-05-18T05:08:09.317Z,101130.45
2023-05-18T05:10:21.082Z,101126.15
2023-05-18T05:12:34.512Z,101128.13
2023-05-18T05:14:49.007Z,101133.28
2023-05-18T05:16:59.367Z,101132.3
2023-05-18T05:19:10.006Z,101130.95
2023-05-18T05:21:22.547Z,101139.02
2023-05-18T05:23:33.509Z,101142.11
2023-05-18T05:25:46.513Z,101144.69
2023-05-18T05:28:04.876Z,101146.15
2023-05-18T05:30:16.929Z,101152.93
2023-05-18T05:32:27.859Z,101146.38
2023-05-18T05:34:41.158Z,101149.91
2023-05-18T05:36:54.417Z,101148.25
2023-05-18T05:39:07.570Z,101146.4
2023-05-18T05:41:22.327Z,101145.09
2023-05-18T05:43:35.176Z,101143.53
2023-05-18T05:45:53.715Z,101146.39
2023-05-18T05:48:16.754Z,101141.39
2023-05-18T05:50:29.953Z,101150.21
2023-05-18T05:52:42.390Z,101145.55
2023-05-18T05:54:56.962Z,101149
2023-05-18T05:57:11.329Z,101146.38
2023-05-18T05:59:22.094Z,101152.08
2023-05-18T06:01:34.586Z,101148.72
2023-05-18T06:03:48.310Z,101149.91
2023-05-18T06:06:01.710Z,101149.3
2023-05-18T06:08:14.743Z,101150.13
2023-05-18T06:10:26.316Z,101154.28
2023-05-18T06:12:39.870Z,101148.91
2023-05-18T06:14:55.170Z,101153.06
2023-05-18T06:17:06.386Z,101152.17
2023-05-18T06:19:19.828Z,101152.28
2023-05-18T06:21:32.790Z,101159.09
2023-05-18T06:23:44.834Z,101158.94
2023-05-18T06:25:58.290Z,101161.61
2023-05-18T06:28:10.010Z,101163.61
2023-05-18T06:30:21.721Z,101160.69
2023-05-18T06:32:37.552Z,101161.65
2023-05-18T06:34:52.538Z,101157.33
2023-05-18T06:37:03.834Z,101166.77
2023-05-18T06:39:15.274Z,101170.33
2023-05-18T06:41:26.916Z,101165.51
2023-05-18T06:43:40.077Z,101169.41
2023-05-18T06:45:56.402Z,101167.02
2023-05-18T06:48:07.730Z,101174.1
2023-05-18T06:50:19.651Z,101175.84
2023-05-18T06:52:33.361Z,101184.8
2023-05-18T06:54:49.020Z,101182.41
2023-05-18T06:57:06.063Z,101190.77
2023-05-18T06:59:20.405Z,101178.58
2023-05-18T07:01:39.495Z,101185.29
2023-05-18T07:03:53.905Z,101182.38
2023-05-18T07:06:08.439Z,101187.54
2023-05-18T07:08:24.819Z,101188.77
2023-05-18T07:10:39.197Z,101193.75
2023-05-18T07:12:51.796Z,101190.27
2023-05-18T07:15:05.016Z,101194.08
2023-05-18T07:17:18.174Z,101195.46
2023-05-18T07:19:31.379Z,101195.7
2023-05-18T07:21:41.890Z,101197.09
2023-05-18T07:23:52.561Z,101198.88
2023-05-18T07:26:17.419Z,101202.3
2023-05-18T07:28:30.740Z,101201.2
2023-05-18T07:30:43.775Z,101208.34
2023-05-18T07:32:55.501Z,101207.07
2023-05-18T07:35:07.923Z,101214.29
2023-05-18T07:37:21.711Z,101211.71
2023-05-18T07:39:36.396Z,101212.58
2023-05-18T07:41:51.556Z,101212.45
2023-05-18T07:44:06.664Z,101212.08
2023-05-18T07:46:23.143Z,101210.48
2023-05-18T07:48:35.309Z,101210.19
2023-05-18T07:50:50.172Z,101208.81
2023-05-18T07:53:03.119Z,101217.55
2023-05-18T07:55:17.198Z,101215.84
2023-05-18T07:57:30.500Z,101223.39
2023-05-18T07:59:47.617Z,101227.88
2023-05-18T08:02:00.469Z,101225.06
2023-05-18T08:04:12.877Z,101232.91
2023-05-18T08:06:26.961Z,101228.88
2023-05-18T08:08:43.241Z,101232.41
2023-05-18T08:10:55.957Z,101234.48
2023-05-18T08:13:11.434Z,101230.14
2023-05-18T08:15:25.195Z,101233.59
2023-05-18T08:17:39.731Z,101232.25
2023-05-18T08:19:56.416Z,101235.66
2023-05-18T08:22:11.281Z,101234.48
2023-05-18T08:24:26.989Z,101235.39
2023-05-18T08:26:36.842Z,101234.81
2023-05-18T08:28:48.274Z,101231.8
2023-05-18T08:31:05.435Z,101239.55
2023-05-18T08:33:19.670Z,101235.58
2023-05-18T08:35:32.905Z,101234.61
2023-05-18T08:37:46.363Z,101236.88
2023-05-18T08:40:01.758Z,101237.1
2023-05-18T08:42:17.096Z,101237.81
2023-05-18T08:44:37.149Z,101228.11
2023-05-18T08:46:57.107Z,101230.25
2023-05-18T08:49:10.047Z,101230.34
2023-05-18T08:51:23.207Z,101228.31
2023-05-18T08:53:35.465Z,101229.58
2023-05-18T08:55:51.413Z,101229.08
2023-05-18T08:58:05.157Z,101225.87
2023-05-18T09:00:18.570Z,101225.22
2023-05-18T09:02:36.560Z,101225.34
2023-05-18T09:04:49.533Z,101224.38
2023-05-18T09:07:03.261Z,101220.8
2023-05-18T09:09:20.526Z,101225.15
2023-05-18T09:11:38.724Z,101227.17
2023-05-18T09:13:57.047Z,101231.59
2023-05-18T09:16:09.952Z,101229.13
2023-05-18T09:18:29.887Z,101226.16
2023-05-18T09:20:41.903Z,101226.47
2023-05-18T09:22:58.946Z,101226.98
2023-05-18T09:25:15.168Z,101228.13
2023-05-18T09:27:33.388Z,101224.89
2023-05-18T09:29:46.902Z,101223.33
2023-05-18T09:32:05.660Z,101222.38
2023-05-18T09:34:21.652Z,101227.16
2023-05-18T09:36:33.484Z,101230.13
2023-05-18T09:38:45.126Z,101230.17
2023-05-18T09:40:58.925Z,101234.13
2023-05-18T09:43:19.311Z,101233.73
2023-05-18T09:45:31.854Z,101233.16
2023-05-18T09:47:50.384Z,101229.91
2023-05-18T09:50:09.905Z,101229.94
2023-05-18T09:52:20.526Z,101230.67
2023-05-18T09:54:34.214Z,101231.7
2023-05-18T09:57:09.362Z,101224.09
2023-05-18T09:59:22.669Z,101227.99
2023-05-18T10:01:39.969Z,101227.05
2023-05-18T10:03:59.627Z,101230.2
2023-05-18T10:06:13.889Z,101228.52
2023-05-18T10:08:26.733Z,101230.04
2023-05-18T10:10:40.443Z,101228.8
2023-05-18T10:12:56.535Z,101225.59
2023-05-18T10:15:09.091Z,101233.36
2023-05-18T10:17:22.351Z,101231.77
2023-05-18T10:19:33.686Z,101228.91
2023-05-18T10:21:45.794Z,101232.77
2023-05-18T10:24:02.997Z,101222.09
2023-05-18T10:26:19.349Z,101224.22
2023-05-18T10:28:32.068Z,101232.67
2023-05-18T10:30:43.504Z,101225.76
2023-05-18T10:32:55.992Z,101224.28
2023-05-18T10:35:07.627Z,101230.16
2023-05-18T10:37:19.311Z,101237.03
2023-05-18T10:39:32.610Z,101230.93
2023-05-18T10:41:46.228Z,101231.55
2023-05-18T10:43:58.846Z,101229.78
2023-05-18T10:46:11.304Z,101228.76
2023-05-18T10:48:23.828Z,101231.06
2023-05-18T10:50:45.010Z,101226.2
2023-05-18T10:52:55.493Z,101224.33
2023-05-18T10:55:12.630Z,101222.2
2023-05-18T10:57:26.551Z,101219.58
2023-05-18T10:59:37.966Z,101223.97
2023-05-18T11:01:55.294Z,101217.09
2023-05-18T11:04:06.644Z,101226.66
2023-05-18T11:06:20.294Z,101224.61
2023-05-18T11:08:32.446Z,101227.26
2023-05-18T11:10:43.633Z,101221.02
2023-05-18T11:12:59.846Z,101221.38
2023-05-18T11:15:12.991Z,101224.66
2023-05-18T11:17:25.883Z,101215.48
2023-05-18T11:19:39.986Z,101215.33
2023-05-18T11:22:01.484Z,101214.91
2023-05-18T11:24:16.238Z,101212.59
2023-05-18T11:26:31.291Z,101212.69
2023-05-18T11:28:46.441Z,101217.89
2023-05-18T11:30:59.744Z,101214.53
2023-05-18T11:33:13.314Z,101211.76
2023-05-18T11:35:26.087Z,101213.31
2023-05-18T11:37:37.946Z,101214.98
2023-05-18T11:40:06.898Z,101216.32
2023-05-18T11:42:21.293Z,101215.27
2023-05-18T11:44:31.844Z,101211.64
2023-05-18T11:46:43.065Z,101210.06
2023-05-18T11:48:53.353Z,101211.41
2023-05-18T11:51:03.944Z,101213.78
2023-05-18T11:53:18.827Z,101209.56
2023-05-18T11:55:30.763Z,101216.13
2023-05-18T11:57:41.166Z,101213.5
2023-05-18T11:59:53.147Z,101215.63
2023-05-18T12:02:03.779Z,101219.7
2023-05-18T12:04:15.774Z,101216.97
2023-05-18T12:06:31.706Z,101220.88
2023-05-18T12:08:48.803Z,101218.51
2023-05-18T12:10:59.662Z,101215.43
2023-05-18T12:13:11.404Z,101210.66
2023-05-18T12:15:21.626Z,101211.61
2023-05-18T12:17:37.986Z,101211.58
2023-05-18T12:19:53.993Z,101209.13
2023-05-18T12:22:18.290Z,101212.44
2023-05-18T12:24:33.487Z,101213.26
2023-05-18T12:26:46.853Z,101213.94
2023-05-18T12:29:05.025Z,101215.97
2023-05-18T12:31:17.458Z,101214.36
2023-05-18T12:33:32.833Z,101221.28
2023-05-18T12:35:50.588Z,101220.4
2023-05-18T12:38:03.514Z,101218.47
2023-05-18T12:40:17.870Z,101218.99
2023-05-18T12:42:30.161Z,101218.39
2023-05-18T12:44:40.542Z,101218.3
2023-05-18T12:46:52.156Z,101217.59
2023-05-18T12:49:04.602Z,101223.22
2023-05-18T12:51:17.032Z,101225.52
2023-05-18T12:53:31.226Z,101227.78
2023-05-18T12:55:43.443Z,101224.61
2023-05-18T12:57:53.564Z,101227.9
2023-05-18T13:00:04.840Z,101224.47
2023-05-18T13:02:15.468Z,101229.03
2023-05-18T13:04:25.985Z,101227.7
2023-05-18T13:06:49.238Z,101228.93
2023-05-18T13:09:00.552Z,101225.87
2023-05-18T13:11:20.483Z,101224.66
2023-05-18T13:13:33.922Z,101227.17
2023-05-18T13:15:44.467Z,101228.79
2023-05-18T13:17:55.178Z,101223.7
2023-05-18T13:20:10.001Z,101227.18
2023-05-18T13:22:20.404Z,101217.98
2023-05-18T13:24:32.600Z,101225.38
2023-05-18T13:26:43.245Z,101225.2
2023-05-18T13:28:58.307Z,101225.89
2023-05-18T13:31:15.015Z,101226.11
2023-05-18T13:33:27.383Z,101227.84
2023-05-18T13:35:37.804Z,101224.66
2023-05-18T13:37:50.861Z,101222.55
2023-05-18T13:40:01.068Z,101223.3
2023-05-18T13:42:10.746Z,101225.55
2023-05-18T13:44:20.747Z,101224.64
2023-05-18T13:46:32.835Z,101229.78
2023-05-18T13:48:44.433Z,101231.39
2023-05-18T13:50:55.459Z,101229.97
2023-05-18T13:53:06.885Z,101231.2
2023-05-18T13:55:17.547Z,101235.84
2023-05-18T13:57:27.489Z,101231.7
2023-05-18T13:59:37.185Z,101238.44
2023-05-18T14:01:47.463Z,101236.39
2023-05-18T14:03:57.530Z,101235.47
2023-05-18T14:06:08.607Z,101230.76
2023-05-18T14:08:19.327Z,101231.32
2023-05-18T14:10:30.413Z,101228.55
2023-05-18T14:12:41.907Z,101234.92
2023-05-18T14:14:52.804Z,101229.27
2023-05-18T14:17:04.136Z,101227.69
2023-05-18T14:19:18.013Z,101230.3
2023-05-18T14:21:28.305Z,101229.8
2023-05-18T14:23:39.462Z,101229.14
2023-05-18T14:25:51.025Z,101229.23
2023-05-18T14:28:01.189Z,101228.66
2023-05-18T14:30:12.072Z,101231.17
2023-05-18T14:32:23.042Z,101230.34
2023-05-18T14:34:34.745Z,101232.95
2023-05-18T14:36:47.083Z,101233.98
2023-05-18T14:38:58.866Z,101229.98
2023-05-18T14:41:10.384Z,101228.97
2023-05-18T14:43:21.641Z,101230.17
2023-05-18T14:45:33.503Z,101231.39
2023-05-18T14:47:43.251Z,101229.05
2023-05-18T14:49:54.704Z,101227.64
2023-05-18T14:52:05.109Z,101228.95
2023-05-18T14:54:15.820Z,101230.36
2023-05-18T14:56:26.082Z,101228.73
2023-05-18T14:58:38.107Z,101234.38
2023-05-18T15:00:48.443Z,101232.95
2023-05-18T15:03:00.324Z,101236
2023-05-18T15:05:11.962Z,101232.64
2023-05-18T15:07:22.484Z,101229.71
2023-05-18T15:09:33.195Z,101229.91
2023-05-18T15:11:43.668Z,101230.13
2023-05-18T15:13:54.870Z,101229.81
2023-05-18T15:16:05.871Z,101232.81
2023-05-18T15:18:16.464Z,101231.42
2023-05-18T15:20:28.595Z,101233.64
2023-05-18T15:22:38.606Z,101231.65
2023-05-18T15:24:50.122Z,101234.06
2023-05-18T15:27:02.502Z,101234.52
2023-05-18T15:29:12.902Z,101236.34
2023-05-18T15:31:24.757Z,101239.23
2023-05-18T15:33:36.013Z,101241.44
2023-05-18T15:35:47.064Z,101239.74
2023-05-18T15:38:01.049Z,101240.27
2023-05-18T15:40:13.104Z,101238.79
2023-05-18T15:42:23.645Z,101238.02
2023-05-18T15:44:36.290Z,101238.34
2023-05-18T15:46:49.704Z,101234.11
2023-05-18T15:49:01.962Z,101234.88
2023-05-18T15:51:13.585Z,101237.2
2023-05-18T15:53:23.847Z,101235.13
2023-05-18T15:55:35.041Z,101236.69
2023-05-18T15:57:46.428Z,101235.7
2023-05-18T15:59:56.767Z,101236.3
2023-05-18T16:02:08.384Z,101238.21
2023-05-18T16:04:20.205Z,101234.95
2023-05-18T16:06:29.786Z,101239.05
2023-05-18T16:08:41.290Z,101239.27
2023-05-18T16:10:52.545Z,101243.98
2023-05-18T16:13:02.489Z,101245.63
2023-05-18T16:15:14.102Z,101248.22
2023-05-18T16:17:25.143Z,101244.42
2023-05-18T16:19:34.906Z,101245.7
2023-05-18T16:21:45.148Z,101246.01
2023-05-18T16:23:55.786Z,101250.5
2023-05-18T16:26:06.287Z,101249.79
2023-05-18T16:28:16.485Z,101252.91
2023-05-18T16:30:26.446Z,101249.34
2023-05-18T16:32:37.589Z,101252.14
2023-05-18T16:34:47.811Z,101249.19
2023-05-18T16:36:58.947Z,101251.73
2023-05-18T16:39:09.767Z,101252.94
2023-05-18T16:41:20.427Z,101253.06
2023-05-18T16:43:31.126Z,101251.85
2023-05-18T16:45:42.645Z,101252.84
2023-05-18T16:47:53.046Z,101255.95
2023-05-18T16:50:04.515Z,101255.97
2023-05-18T16:52:14.530Z,101257.7
2023-05-18T16:54:24.684Z,101260.25
2023-05-18T16:56:35.032Z,101259.78
2023-05-18T16:58:45.668Z,101259.72
2023-05-18T17:00:56.959Z,101259.52
2023-05-18T17:03:08.774Z,101261.2
2023-05-18T17:05:21.817Z,101262.62
2023-05-18T17:07:32.083Z,101265.48
2023-05-18T17:09:42.756Z,101267.59
2023-05-18T17:11:53.904Z,101264.13
2023-05-18T17:14:06.321Z,101271.72
2023-05-18T17:16:20.265Z,101267.05
2023-05-18T17:18:30.381Z,101266.17
2023-05-18T17:20:41.723Z,101269.66
2023-05-18T17:22:51.664Z,101274.22
2023-05-18T17:25:01.640Z,101276.44
2023-05-18T17:27:11.960Z,101276.94
2023-05-18T17:29:23.646Z,101282.41
2023-05-18T17:31:33.476Z,101285.28
2023-05-18T17:33:43.581Z,101290.33
2023-05-18T17:35:54.184Z,101288.48
2023-05-18T17:38:03.523Z,101286.91
2023-05-18T17:40:13.733Z,101283.53
2023-05-18T17:42:25.523Z,101289.65
2023-05-18T17:44:36.505Z,101287.91
2023-05-18T17:46:47.100Z,101286.88
2023-05-18T17:48:58.143Z,101289.89
2023-05-18T17:51:11.323Z,101289.22
2023-05-18T17:53:23.766Z,101289.8
2023-05-18T17:55:34.645Z,101295.25
2023-05-18T17:57:46.631Z,101293.72
2023-05-18T17:59:59.602Z,101296.7
2023-05-18T18:02:11.036Z,101297.44
2023-05-18T18:04:22.215Z,101297.03
2023-05-18T18:06:33.401Z,101302.07
2023-05-18T18:08:45.660Z,101302.88
2023-05-18T18:10:57.145Z,101305.39
2023-05-18T18:13:08.362Z,101305.53
2023-05-18T18:15:19.102Z,101308.77
2023-05-18T18:17:32.085Z,101309.16
2023-05-18T18:19:43.085Z,101306.98
2023-05-18T18:21:56.261Z,101310.88
2023-05-18T18:24:07.646Z,101312.27
2023-05-18T18:26:17.822Z,101313.02
2023-05-18T18:28:30.345Z,101314.23
2023-05-18T18:30:39.772Z,101313.87
2023-05-18T18:32:52.338Z,101319.29
2023-05-18T18:35:03.651Z,101321.27
2023-05-18T18:37:15.549Z,101325.11
2023-05-18T18:39:26.968Z,101322.27
2023-05-18T18:41:42.610Z,101324.84
2023-05-18T18:43:53.732Z,101327.33
2023-05-18T18:46:05.891Z,101326.39
2023-05-18T18:48:18.086Z,101326.47
2023-05-18T18:50:30.098Z,101329.13
2023-05-18T18:52:42.850Z,101329.88
2023-05-18T18:54:55.507Z,101327.5
2023-05-18T18:57:07.128Z,101324.02
2023-05-18T18:59:21.165Z,101329.09
2023-05-18T19:01:35.652Z,101332.35
2023-05-18T19:03:46.329Z,101334.92
2023-05-18T19:05:56.634Z,101329.28
2023-05-18T19:08:08.615Z,101330.78
2023-05-18T19:10:21.428Z,101329.64
2023-05-18T19:12:31.869Z,101327.56
2023-05-18T19:14:42.985Z,101331.07
2023-05-18T19:16:53.024Z,101336.77
2023-05-18T19:19:10.290Z,101337.45
2023-05-18T19:21:21.951Z,101342.43
2023-05-18T19:23:34.528Z,101343.92
2023-05-18T19:25:45.837Z,101345
2023-05-18T19:27:57.390Z,101346
2023-05-18T19:30:09.169Z,101346.58
2023-05-18T19:32:19.953Z,101346.99
2023-05-18T19:34:32.624Z,101348.7
2023-05-18T19:36:43.906Z,101349.95
2023-05-18T19:38:56.143Z,101347.71
2023-05-18T19:41:07.807Z,101347.32
2023-05-18T19:43:23.503Z,101344.91
2023-05-18T19:45:35.268Z,101352.13
2023-05-18T19:47:48.036Z,101344.75
2023-05-18T19:49:58.902Z,101348.72
2023-05-18T19:52:09.535Z,101349.55
2023-05-18T19:54:20.583Z,101349.47
2023-05-18T19:56:32.624Z,101349.55
2023-05-18T19:58:43.781Z,101349.55
2023-05-18T20:00:54.871Z,101355.1
2023-05-18T20:03:06.302Z,101354.77
2023-05-18T20:05:16.228Z,101352.67
2023-05-18T20:07:28.787Z,101356.73
2023-05-18T20:09:39.425Z,101357.15
2023-05-18T20:11:49.944Z,101355.74
2023-05-18T20:14:00.015Z,101362.2
2023-05-18T20:16:11.319Z,101362.56
2023-05-18T20:18:22.804Z,101359.91
2023-05-18T20:20:34.087Z,101363.58
2023-05-18T20:22:44.886Z,101365.27
2023-05-18T20:24:55.490Z,101368.41
2023-05-18T20:27:06.948Z,101371.3
2023-05-18T20:29:17.340Z,101372.11
2023-05-18T20:31:28.930Z,101377.25
2023-05-18T20:33:38.923Z,101372.17
2023-05-18T20:35:48.862Z,101374.02
2023-05-18T20:37:59.734Z,101375.51
2023-05-18T20:40:09.728Z,101375.92
2023-05-18T20:42:20.320Z,101376.64
2023-05-18T20:44:30.220Z,101378.47
2023-05-18T20:46:41.169Z,101378.8
2023-05-18T20:48:52.780Z,101382.66
2023-05-18T20:51:03.930Z,101384.16
2023-05-18T20:53:14.981Z,101386.09
2023-05-18T20:55:24.864Z,101385.4
2023-05-18T20:57:35.907Z,101388.27
2023-05-18T20:59:46.821Z,101392.24
2023-05-18T21:01:57.056Z,101393.05
2023-05-18T21:04:09.155Z,101395.23
2023-05-18T21:06:26.180Z,101392.48
2023-05-18T21:08:38.364Z,101395.48
2023-05-18T21:10:49.202Z,101399.16
2023-05-18T21:13:01.208Z,101399.07
2023-05-18T21:15:12.667Z,101400.53
2023-05-18T21:17:29.605Z,101396.48
2023-05-18T21:19:42.746Z,101394.58
2023-05-18T21:21:55.747Z,101395.53
2023-05-18T21:24:07.867Z,101392.64
2023-05-18T21:26:21.820Z,101382.02
2023-05-18T21:28:32.833Z,101382.83
2023-05-18T21:30:43.889Z,101387.81
2023-05-18T21:32:55.552Z,101389.09
2023-05-18T21:35:07.490Z,101395.06
2023-05-18T21:37:18.970Z,101395.28
2023-05-18T21:39:29.491Z,101399.94
2023-05-18T21:41:39.914Z,101401.75
2023-05-18T21:43:52.289Z,101398.84
2023-05-18T21:46:07.095Z,101404.39
2023-05-18T21:48:20.553Z,101399.58
2023-05-18T21:50:32.260Z,101402.98
2023-05-18T21:52:44.400Z,101402.04
2023-05-18T21:54:56.113Z,101401.83
2023-05-18T21:57:07.939Z,101406.77
2023-05-18T21:59:22.211Z,101407
2023-05-18T22:01:37.195Z,101408.08
2023-05-18T22:03:47.541Z,101414.86
2023-05-18T22:05:58.068Z,101414.86
2023-05-18T22:08:08.672Z,101417.31
2023-05-18T22:10:20.922Z,101413.27
2023-05-18T22:12:31.850Z,101417.56
2023-05-18T22:14:43.313Z,101420.25
2023-05-18T22:16:56.128Z,101420.67
2023-05-18T22:19:08.950Z,101421.05
2023-05-18T22:21:24.361Z,101422.88
2023-05-18T22:23:35.612Z,101426.67
2023-05-18T22:25:45.735Z,101422.87
2023-05-18T22:27:58.314Z,101419.28
2023-05-18T22:30:08.428Z,101417.13
2023-05-18T22:32:20.678Z,101415.19
2023-05-18T22:34:34.751Z,101414.55
2023-05-18T22:36:47.666Z,101412.55
2023-05-18T22:38:59.868Z,101408.95
2023-05-18T22:41:10.504Z,101408.45
2023-05-18T22:43:20.081Z,101410.56
2023-05-18T22:45:30.147Z,101406.92
2023-05-18T22:47:40.407Z,101403.53
2023-05-18T22:49:51.582Z,101405.17
2023-05-18T22:52:02.064Z,101405.92
2023-05-18T22:54:12.625Z,101403.47
2023-05-18T22:56:22.419Z,101406.75
2023-05-18T22:58:32.169Z,101405.13
2023-05-18T23:00:42.247Z,101404.34
2023-05-18T23:02:52.102Z,101402.7
2023-05-18T23:05:02.150Z,101402.81
2023-05-18T23:07:13.205Z,101404.47
2023-05-18T23:09:22.988Z,101403.94
2023-05-18T23:11:33.127Z,101403.11
2023-05-18T23:13:43.068Z,101399.5
2023-05-18T23:15:53.871Z,101397.95
2023-05-18T23:18:04.124Z,101393.95
2023-05-18T23:20:15.566Z,101395.84
2023-05-18T23:22:26.129Z,101397.63
2023-05-18T23:24:36.248Z,101397.5
2023-05-18T23:26:47.827Z,101392.59
2023-05-18T23:28:59.087Z,101392.17
2023-05-18T23:31:09.746Z,101393.08
2023-05-18T23:33:20.692Z,101395.03
2023-05-18T23:35:31.228Z,101393.98
2023-05-18T23:37:41.529Z,101387.38
2023-05-18T23:39:52.424Z,101386.55
2023-05-18T23:42:03.778Z,101383.7
2023-05-18T23:44:14.867Z,101383.14
2023-05-18T23:46:28.021Z,101388.08
2023-05-18T23:48:39.068Z,101383.94
2023-05-18T23:50:49.826Z,101385.27
2023-05-18T23:53:00.371Z,101385.07
2023-05-18T23:55:14.582Z,101387.48
2023-05-18T23:57:26.591Z,101387.56
2023-05-18T23:59:41.174Z,101385.8
